Time;durP1;ratioP1;P1;durP2;ratioP2;P2;SDS_P1;SDS_P2;PMS_P1;PMS_P2;Temp;Humidity;BMP_temperature;BMP_pressure;BME280_temperature;BME280_humidity;BME280_pressure;Samples;Min_cycle;Max_cycle;Signal;HPM_P1;HPM_P2
2022/05/30 00:00:46;;;;;;;0.95;0.70;;;;;;;15.68;61.58;98644.23;1745821;81;20980;-70
2022/05/30 00:03:13;;;;;;;0.95;0.78;;;;;;;15.70;61.71;98641.62;1746229;81;20935;-70
2022/05/30 00:05:48;;;;;;;2.47;0.80;;;;;;;15.72;61.79;98638.19;1748315;81;20991;-70
2022/05/30 00:08:17;;;;;;;1.90;1.15;;;;;;;15.76;61.86;98639.91;1763476;79;20884;-70
2022/05/30 00:10:43;;;;;;;1.90;1.07;;;;;;;15.80;61.87;98639.23;1771691;81;21139;-70
2022/05/30 00:13:10;;;;;;;1.70;0.80;;;;;;;15.85;61.77;98638.59;1772968;79;21465;-70
2022/05/30 00:15:38;;;;;;;1.75;1.02;;;;;;;15.86;61.75;98625.45;1762608;81;21058;-70
2022/05/30 00:18:09;;;;;;;1.02;0.90;;;;;;;15.85;61.74;98621.16;1764220;79;21399;-70
2022/05/30 00:20:34;;;;;;;2.95;1.07;;;;;;;15.84;61.72;98616.82;1743855;81;20880;-70
2022/05/30 00:23:00;;;;;;;2.42;0.80;;;;;;;15.81;61.77;98609.22;1743636;81;21132;-70
2022/05/30 00:25:27;;;;;;;0.60;0.60;;;;;;;15.80;61.86;98610.28;1748514;79;21011;-70
2022/05/30 00:27:55;;;;;;;1.17;0.98;;;;;;;15.80;61.94;98596.88;1753037;81;20943;-70
2022/05/30 00:30:22;;;;;;;1.07;0.85;;;;;;;15.78;62.06;98590.89;1783024;80;21427;-70
2022/05/30 00:32:49;;;;;;;1.80;0.82;;;;;;;15.75;62.22;98577.93;1789634;80;20970;-70
2022/05/30 00:35:15;;;;;;;1.57;0.90;;;;;;;15.72;62.45;98581.09;1788057;79;21093;-70
2022/05/30 00:37:42;;;;;;;1.20;1.00;;;;;;;15.66;62.76;98577.44;1763026;79;20971;-70
2022/05/30 00:40:10;;;;;;;2.25;1.10;;;;;;;15.62;62.90;98578.08;1759650;80;20935;-70
2022/05/30 00:42:37;;;;;;;0.85;0.85;;;;;;;15.58;63.20;98576.91;1765955;80;20918;-70
2022/05/30 00:45:05;;;;;;;1.10;0.90;;;;;;;15.53;63.41;98577.59;1788911;78;20977;-70
2022/05/30 00:47:31;;;;;;;2.30;0.90;;;;;;;15.51;63.59;98567.62;1772227;80;21297;-70
2022/05/30 00:49:57;;;;;;;1.62;1.10;;;;;;;15.50;63.57;98570.50;1781007;80;20946;-70
2022/05/30 00:52:38;;;;;;;1.85;1.17;;;;;;;15.50;63.38;98565.14;1763548;80;21511;-70
2022/05/30 00:55:12;;;;;;;1.10;1.00;;;;;;;15.50;63.30;98557.09;1764500;80;20967;-70
2022/05/30 00:57:39;;;;;;;2.02;1.00;;;;;;;15.49;63.24;98548.23;1724689;83;20894;-70
2022/05/30 01:00:20;;;;;;;1.62;1.05;;;;;;;15.50;63.19;98540.50;1723296;82;21236;-69
2022/05/30 01:06:30;;;;;;;1.37;1.00;;;;;;;15.47;63.24;98527.55;1717994;82;21523;-70
2022/05/30 01:08:06;;;;;;;1.32;0.90;;;;;;;15.46;62.83;98519.74;1720438;82;20907;-69
2022/05/30 01:10:33;;;;;;;1.57;0.90;;;;;;;15.44;62.62;98519.91;1719005;82;20947;-70
2022/05/30 01:13:00;;;;;;;1.67;1.35;;;;;;;15.45;62.40;98513.52;1723664;81;21156;-70
2022/05/30 01:15:29;;;;;;;1.30;1.20;;;;;;;15.47;61.95;98518.16;1725752;81;20945;-70
2022/05/30 01:18:00;;;;;;;1.20;1.10;;;;;;;15.47;61.65;98514.66;1728275;81;20958;-69
2022/05/30 01:20:36;;;;;;;2.20;1.25;;;;;;;15.47;61.36;98514.66;1725809;81;21501;-70
2022/05/30 01:23:10;;;;;;;1.85;1.07;;;;;;;15.47;61.29;98506.10;1720875;82;20856;-69
2022/05/30 01:26:33;;;;;;;1.30;1.10;;;;;;;15.49;61.09;98503.22;1723426;81;21153;-69
2022/05/30 01:29:20;;;;;;;1.20;1.10;;;;;;;15.49;61.17;98503.22;1736253;81;20899;-69
2022/05/30 01:31:47;;;;;;;1.25;1.02;;;;;;;15.50;60.78;98497.62;1696910;81;20938;-69
2022/05/30 01:34:15;;;;;;;0.98;0.98;;;;;;;15.52;60.61;98503.56;1723517;81;20907;-69
2022/05/30 01:36:42;;;;;;;1.55;1.00;;;;;;;15.55;60.57;98503.64;1692228;81;20946;-69
2022/05/30 01:39:09;;;;;;;1.57;0.98;;;;;;;15.56;60.42;98510.64;1729773;81;21739;-70
2022/05/30 01:41:38;;;;;;;3.72;1.52;;;;;;;15.55;60.19;98513.02;1735068;80;21500;-70
2022/05/30 01:44:05;;;;;;;1.10;1.00;;;;;;;15.53;59.66;98515.11;1720840;82;20908;-69
2022/05/30 01:46:32;;;;;;;1.27;0.75;;;;;;;15.52;59.18;98520.16;1709972;82;21537;-69
2022/05/30 01:49:00;;;;;;;1.15;1.00;;;;;;;15.53;58.87;98520.47;1710080;82;20995;-69
2022/05/30 01:51:27;;;;;;;2.15;0.88;;;;;;;15.56;58.32;98518.69;1709821;82;21144;-70
2022/05/30 01:53:56;;;;;;;1.00;0.90;;;;;;;15.60;58.24;98521.20;1724672;82;20899;-69
2022/05/30 01:56:41;;;;;;;1.37;0.82;;;;;;;15.61;57.69;98511.61;1738289;82;20967;-69
2022/05/30 01:59:08;;;;;;;0.75;0.75;;;;;;;15.62;57.32;98518.59;1716890;82;21047;-69
2022/05/30 02:01:39;;;;;;;0.98;0.88;;;;;;;15.64;57.10;98523.23;1728694;81;21054;-70
2022/05/30 02:04:06;;;;;;;0.53;0.53;;;;;;;15.66;57.21;98513.09;1722651;82;22164;-69
2022/05/30 02:06:35;;;;;;;1.40;0.93;;;;;;;15.67;56.98;98522.75;1717817;82;20895;-69
2022/05/30 02:09:03;;;;;;;2.10;0.98;;;;;;;15.67;57.11;98510.69;1717891;82;20895;-69
2022/05/30 02:11:29;;;;;;;2.15;0.85;;;;;;;15.69;57.26;98515.84;1717984;82;21054;-69
2022/05/30 02:14:00;;;;;;;1.22;0.70;;;;;;;15.70;57.17;98519.62;1732224;82;20931;-69
2022/05/30 02:19:17;;;;;;;1.10;0.75;;;;;;;15.72;57.29;98538.19;1746335;82;21469;-70
2022/05/30 02:21:45;;;;;;;1.02;0.93;;;;;;;15.72;57.04;98529.59;1736079;81;21050;-69
2022/05/30 02:24:12;;;;;;;2.27;1.30;;;;;;;15.74;57.20;98536.91;1729022;81;20962;-69
2022/05/30 02:26:38;;;;;;;2.35;1.10;;;;;;;15.78;57.27;98534.06;1717981;82;20938;-69
2022/05/30 02:29:07;;;;;;;3.65;1.10;;;;;;;15.78;57.52;98537.26;1717942;82;21166;-69
2022/05/30 02:31:33;;;;;;;3.58;1.02;;;;;;;15.76;58.00;98541.52;1713868;82;21414;-69
2022/05/30 02:36:47;;;;;;;3.00;1.00;;;;;;;15.75;60.62;98550.59;1720482;82;20933;-70
2022/05/30 02:39:17;;;;;;;1.37;1.10;;;;;;;15.66;62.18;98546.61;1720321;82;20934;-70
2022/05/30 02:41:55;;;;;;;1.60;1.27;;;;;;;15.59;63.65;98546.39;1728490;80;21266;-69
2022/05/30 02:44:24;;;;;;;2.22;1.20;;;;;;;15.50;64.91;98547.20;1721646;80;20866;-69
2022/05/30 02:46:57;;;;;;;1.87;1.30;;;;;;;15.42;65.86;98547.47;1757214;79;20951;-69
2022/05/30 02:49:24;;;;;;;1.20;1.10;;;;;;;15.38;66.78;98534.23;1761190;80;20895;-69
2022/05/30 02:51:51;;;;;;;1.85;1.22;;;;;;;15.29;67.88;98528.34;1754145;80;21508;-69
2022/05/30 02:54:18;;;;;;;1.80;1.57;;;;;;;15.26;68.57;98531.46;1762333;80;21156;-70
2022/05/30 02:56:52;;;;;;;1.40;1.27;;;;;;;15.28;69.21;98533.39;1774742;80;20974;-70
2022/05/30 02:59:19;;;;;;;3.58;1.37;;;;;;;15.30;69.94;98521.13;1783718;79;20927;-69
2022/05/30 03:01:48;;;;;;;1.27;1.17;;;;;;;15.29;70.50;98526.17;1770738;80;21021;-70
2022/05/30 03:04:16;;;;;;;1.80;1.57;;;;;;;15.25;71.17;98522.31;1760546;80;21034;-70
2022/05/30 03:06:44;;;;;;;1.40;1.30;;;;;;;15.19;71.74;98525.88;1754207;80;21143;-70
2022/05/30 03:09:11;;;;;;;3.42;1.47;;;;;;;15.14;72.33;98525.21;1753994;80;20958;-71
2022/05/30 03:11:56;;;;;;;1.92;1.55;;;;;;;15.07;72.78;98520.42;1754350;80;21607;-71
2022/05/30 03:14:23;;;;;;;1.70;1.57;;;;;;;15.04;73.37;98514.20;1766831;79;21197;-71
2022/05/30 03:16:50;;;;;;;1.65;1.55;;;;;;;15.03;73.80;98517.08;1756748;80;21520;-71
2022/05/30 03:19:17;;;;;;;3.05;1.67;;;;;;;14.98;74.32;98514.25;1759000;80;21072;-70
2022/05/30 03:21:44;;;;;;;2.08;1.60;;;;;;;14.95;74.79;98507.47;1754022;80;21021;-70
2022/05/30 03:24:11;;;;;;;1.72;1.47;;;;;;;14.93;75.18;98514.09;1754082;80;20979;-70
2022/05/30 03:26:39;;;;;;;1.77;1.52;;;;;;;14.91;75.56;98504.12;1754506;80;20954;-70
2022/05/30 03:29:06;;;;;;;3.65;1.72;;;;;;;14.88;76.00;98511.26;1741985;80;20891;-71
2022/05/30 03:31:33;;;;;;;5.90;2.08;;;;;;;14.79;76.57;98507.53;1708536;83;21133;-70
2022/05/30 03:33:59;;;;;;;4.17;2.35;;;;;;;14.75;77.15;98509.53;1700032;83;20987;-71
2022/05/30 03:36:27;;;;;;;2.12;1.75;;;;;;;14.72;77.53;98509.97;1700119;83;20987;-70
2022/05/30 03:38:56;;;;;;;3.08;1.70;;;;;;;14.67;78.04;98493.23;1703758;83;21011;-70
2022/05/30 03:41:34;;;;;;;1.32;1.20;;;;;;;14.64;78.51;98489.66;1700452;83;20904;-70
2022/05/30 03:44:12;;;;;;;2.17;1.70;;;;;;;14.62;78.98;98483.70;1707631;83;21810;-71
2022/05/30 03:46:39;;;;;;;2.45;2.10;;;;;;;14.55;79.50;98476.75;1712221;82;20978;-71
2022/05/30 03:49:06;;;;;;;2.52;1.42;;;;;;;14.48;80.10;98468.80;1707438;81;20988;-71
2022/05/30 03:51:32;;;;;;;2.45;1.65;;;;;;;14.48;80.54;98466.63;1700206;83;20904;-71
2022/05/30 03:53:59;;;;;;;4.25;1.70;;;;;;;14.48;80.86;98462.10;1701609;83;21003;-71
2022/05/30 03:56:25;;;;;;;2.35;2.10;;;;;;;14.43;81.55;98464.62;1704768;81;21766;-71
2022/05/30 03:58:52;;;;;;;2.42;2.22;;;;;;;14.39;82.21;98456.71;1709002;83;20979;-71
2022/05/30 04:01:18;;;;;;;2.50;2.00;;;;;;;14.32;82.86;98463.98;1700189;83;21074;-71
2022/05/30 04:03:46;;;;;;;2.65;1.92;;;;;;;14.31;83.47;98461.51;1700145;83;20955;-70
2022/05/30 04:06:12;;;;;;;2.92;2.22;;;;;;;14.29;83.92;98463.05;1700137;83;21426;-71
2022/05/30 04:08:40;;;;;;;4.22;2.58;;;;;;;14.26;84.40;98464.81;1705561;83;21064;-71
2022/05/30 04:11:25;;;;;;;4.10;2.70;;;;;;;14.24;84.85;98455.69;1705892;83;21569;-71
2022/05/30 04:14:11;;;;;;;3.33;2.22;;;;;;;14.25;85.31;98457.84;1700138;83;20900;-70
2022/05/30 04:16:45;;;;;;;2.42;2.08;;;;;;;14.24;85.71;98462.37;1700249;83;21438;-70
2022/05/30 04:19:13;;;;;;;2.17;1.98;;;;;;;14.25;85.97;98441.80;1703846;83;20939;-70
2022/05/30 04:21:39;;;;;;;4.55;2.52;;;;;;;14.24;86.16;98445.50;1700081;83;21753;-70
2022/05/30 04:24:07;;;;;;;3.60;2.35;;;;;;;14.24;86.40;98436.95;1700113;83;20885;-70
2022/05/30 04:26:39;;;;;;;5.25;1.80;;;;;;;14.25;86.59;98433.77;1695481;83;21055;-70
2022/05/30 04:29:07;;;;;;;2.65;2.15;;;;;;;14.26;86.84;98430.04;1713956;83;20900;-71
2022/05/30 04:31:54;;;;;;;2.37;2.12;;;;;;;14.23;87.05;98427.83;1727332;80;21049;-70
2022/05/30 04:34:21;;;;;;;4.00;1.80;;;;;;;14.24;87.17;98433.45;1705740;83;21914;-70
2022/05/30 04:36:48;;;;;;;4.90;2.40;;;;;;;14.20;86.87;98426.92;1700017;83;20967;-70
2022/05/30 04:39:15;;;;;;;2.05;1.72;;;;;;;14.22;86.88;98427.52;1711196;81;20864;-70
2022/05/30 04:41:42;;;;;;;3.10;2.75;;;;;;;14.20;86.99;98417.56;1699177;83;20943;-71
2022/05/30 04:44:27;;;;;;;2.67;2.17;;;;;;;14.23;87.20;98418.47;1719620;83;20991;-70
2022/05/30 04:47:11;;;;;;;3.08;1.98;;;;;;;14.23;87.47;98410.44;1686479;83;21163;-70
2022/05/30 04:49:42;;;;;;;2.98;2.42;;;;;;;14.23;87.72;98411.78;1701907;83;20908;-70
2022/05/30 04:52:09;;;;;;;2.87;2.22;;;;;;;14.26;88.01;98412.65;1702225;81;21008;-71
2022/05/30 04:54:36;;;;;;;3.90;2.08;;;;;;;14.29;88.20;98414.10;1700102;83;20999;-70
2022/05/30 04:57:17;;;;;;;2.55;2.33;;;;;;;14.31;88.42;98391.95;1700570;83;21055;-69
2022/05/30 04:59:45;;;;;;;2.50;2.27;;;;;;;14.33;88.65;98396.08;1708677;83;21132;-70
2022/05/30 05:02:13;;;;;;;3.47;2.27;;;;;;;14.34;88.99;98388.88;1707748;81;20988;-70
2022/05/30 05:04:39;;;;;;;2.62;2.42;;;;;;;14.35;89.18;98384.63;1701469;81;20952;-70
2022/05/30 05:07:06;;;;;;;3.83;2.60;;;;;;;14.34;89.33;98382.98;1708743;83;20958;-70
2022/05/30 05:09:48;;;;;;;2.30;2.10;;;;;;;14.36;89.50;98384.94;1700108;83;20964;-70
2022/05/30 05:12:22;;;;;;;2.33;2.12;;;;;;;14.36;89.51;98379.59;1664947;82;21795;-70
2022/05/30 05:15:05;;;;;;;2.55;1.72;;;;;;;14.34;89.52;98370.15;1661450;83;20984;-69
2022/05/30 05:17:51;;;;;;;2.50;2.00;;;;;;;14.36;89.56;98371.56;1714104;82;21029;-69
2022/05/30 05:20:19;;;;;;;2.98;2.10;;;;;;;14.38;89.52;98374.00;1705174;82;21095;-69
2022/05/30 05:22:45;;;;;;;3.72;2.20;;;;;;;14.39;89.65;98366.29;1760476;79;20963;-69
2022/05/30 05:25:13;;;;;;;3.05;2.15;;;;;;;14.40;89.75;98376.76;1749930;81;21679;-70
2022/05/30 05:27:40;;;;;;;2.00;1.90;;;;;;;14.41;89.80;98365.54;1751328;81;21472;-69
2022/05/30 05:30:10;;;;;;;4.78;2.30;;;;;;;14.42;89.78;98372.00;1743614;81;20844;-67
2022/05/30 05:32:37;;;;;;;3.17;2.25;;;;;;;14.41;89.71;98370.37;1761819;80;20883;-68
2022/05/30 05:35:06;;;;;;;2.20;2.00;;;;;;;14.44;89.65;98367.27;1787195;80;20930;-66
2022/05/30 05:37:34;;;;;;;3.33;2.42;;;;;;;14.46;89.74;98367.03;1780737;78;21201;-67
2022/05/30 05:40:18;;;;;;;2.60;2.20;;;;;;;14.48;89.87;98343.53;1719640;82;21426;-72
2022/05/30 05:42:45;;;;;;;3.05;2.62;;;;;;;14.52;90.07;98354.11;1747927;80;21562;-68
2022/05/30 05:45:12;;;;;;;2.72;2.42;;;;;;;14.54;90.16;98350.17;1782993;80;21067;-78
2022/05/30 05:47:40;;;;;;;2.65;2.45;;;;;;;14.56;90.16;98362.80;1775570;79;20883;-76
2022/05/30 05:50:10;;;;;;;3.25;2.98;;;;;;;14.60;90.25;98341.78;1768737;80;21144;-75
2022/05/30 05:52:37;;;;;;;3.58;2.75;;;;;;;14.60;90.28;98359.97;1759100;80;20919;-75
2022/05/30 05:55:07;;;;;;;3.22;2.92;;;;;;;14.62;90.28;98365.94;1759026;80;21472;-75
2022/05/30 05:57:34;;;;;;;3.72;2.70;;;;;;;14.63;90.30;98343.47;1759318;80;20998;-76
2022/05/30 06:00:04;;;;;;;3.55;2.58;;;;;;;14.64;90.37;98344.29;1770658;79;20958;-78
2022/05/30 06:02:32;;;;;;;2.70;2.47;;;;;;;14.69;90.51;98343.92;1779759;80;21143;-78
2022/05/30 06:05:01;;;;;;;3.12;2.83;;;;;;;14.82;90.24;98350.46;1779358;78;20922;-74
2022/05/30 06:07:46;;;;;;;2.50;2.30;;;;;;;14.89;90.16;98340.99;1778790;79;20891;-75
2022/05/30 06:11:04;;;;;;;2.85;2.60;;;;;;;14.95;89.98;98347.31;1718124;82;20953;-70
2022/05/30 06:13:03;;;;;;;3.40;2.55;;;;;;;14.98;89.68;98360.26;1719550;82;20982;-71
2022/05/30 06:15:31;;;;;;;2.60;2.40;;;;;;;14.98;89.68;98349.03;1744341;80;21489;-72
2022/05/30 06:18:07;;;;;;;3.60;2.60;;;;;;;15.03;89.80;98349.17;1775071;80;21386;-64
2022/05/30 06:20:34;;;;;;;2.45;2.25;;;;;;;15.10;89.74;98351.75;1775863;80;21076;-66
2022/05/30 06:23:01;;;;;;;3.22;2.20;;;;;;;15.18;89.89;98357.62;1767371;80;20982;-65
2022/05/30 06:25:31;;;;;;;2.62;2.08;;;;;;;15.34;89.79;98349.47;1735783;79;20987;-65
2022/05/30 06:28:03;;;;;;;3.65;2.10;;;;;;;15.52;89.33;98349.95;1783031;80;21129;-62
2022/05/30 06:30:31;;;;;;;2.20;2.00;;;;;;;15.66;88.81;98337.48;1759547;80;20982;-62
2022/05/30 06:32:58;;;;;;;2.45;1.98;;;;;;;15.78;87.80;98334.30;1743383;81;20916;-63
2022/05/30 06:35:42;;;;;;;2.20;2.00;;;;;;;15.89;87.14;98342.89;1730387;81;20924;-63
2022/05/30 06:38:09;;;;;;;2.22;1.90;;;;;;;15.99;86.63;98347.67;1734484;81;20951;-61
2022/05/30 06:40:37;;;;;;;1.65;1.55;;;;;;;16.08;86.37;98350.84;1749764;79;21246;-63
2022/05/30 06:43:05;;;;;;;2.10;1.85;;;;;;;16.21;85.71;98360.00;1757951;81;21461;-61
2022/05/30 06:45:32;;;;;;;1.90;1.77;;;;;;;16.34;84.94;98351.72;1745076;81;21081;-61
2022/05/30 06:48:18;;;;;;;2.00;1.75;;;;;;;16.36;83.93;98336.19;1752579;81;21266;-63
2022/05/30 06:50:53;;;;;;;1.75;1.65;;;;;;;16.39;83.45;98337.07;1747598;79;21022;-64
2022/05/30 06:53:20;;;;;;;2.02;1.92;;;;;;;16.45;83.14;98332.11;1748628;80;21782;-60
2022/05/30 06:55:49;;;;;;;2.12;1.98;;;;;;;16.51;82.84;98341.89;1753086;81;20975;-61
2022/05/30 06:58:19;;;;;;;1.90;1.80;;;;;;;16.55;82.96;98345.78;1751576;81;21094;-61
2022/05/30 07:00:47;;;;;;;1.87;1.67;;;;;;;16.58;83.03;98348.00;1753548;81;20979;-63
2022/05/30 07:03:34;;;;;;;4.20;2.00;;;;;;;16.64;83.07;98339.81;1760640;80;21393;-62
2022/05/30 07:06:10;;;;;;;2.30;2.08;;;;;;;16.70;82.56;98332.68;1718942;80;21126;-63
2022/05/30 07:08:52;;;;;;;2.62;1.72;;;;;;;16.73;82.29;98335.42;1753027;79;20982;-63
2022/05/30 07:11:40;;;;;;;1.90;1.80;;;;;;;16.79;82.07;98339.30;1747401;81;21552;-62
2022/05/30 07:14:12;;;;;;;2.20;2.00;;;;;;;16.84;81.91;98327.31;1762220;81;20970;-60
2022/05/30 07:16:39;;;;;;;1.70;1.60;;;;;;;16.92;81.80;98330.97;1756295;81;21042;-62
2022/05/30 07:19:09;;;;;;;4.20;2.10;;;;;;;16.98;81.40;98327.34;1753215;81;21139;-70
2022/05/30 07:21:38;;;;;;;3.00;2.10;;;;;;;17.03;81.07;98325.27;1760197;79;21004;-66
2022/05/30 07:24:23;;;;;;;2.17;2.00;;;;;;;17.07;80.83;98323.23;1754749;81;20919;-67
2022/05/30 07:26:54;;;;;;;2.45;2.25;;;;;;;17.00;80.50;98325.75;1736174;80;21544;-68
2022/05/30 07:29:39;;;;;;;2.20;2.00;;;;;;;16.89;80.50;98326.10;1749950;79;21575;-69
2022/05/30 07:32:10;;;;;;;2.30;2.10;;;;;;;16.84;80.98;98336.72;1733933;80;21152;-65
2022/05/30 07:34:56;;;;;;;3.00;1.82;;;;;;;16.79;81.29;98338.50;1747259;80;21038;-70
2022/05/30 07:37:32;;;;;;;3.05;2.62;;;;;;;16.84;81.67;98351.48;1746847;81;21013;-67
2022/05/30 07:40:17;;;;;;;2.62;2.10;;;;;;;16.86;81.62;98341.34;1750833;79;21086;-72
2022/05/30 07:42:58;;;;;;;2.22;2.10;;;;;;;16.81;81.67;98347.14;1761002;80;20964;-70
2022/05/30 07:45:29;;;;;;;2.25;2.05;;;;;;;16.74;81.93;98349.14;1757978;79;21219;-70
2022/05/30 07:48:09;;;;;;;3.37;2.42;;;;;;;16.73;82.31;98358.24;1743288;80;20990;-71
2022/05/30 07:50:39;;;;;;;5.25;2.70;;;;;;;16.71;82.46;98350.44;1729780;81;20967;-71
2022/05/30 07:53:08;;;;;;;4.10;2.42;;;;;;;16.73;82.64;98355.03;1755210;81;20987;-69
2022/05/30 07:55:39;;;;;;;2.10;1.90;;;;;;;16.77;82.77;98358.87;1761493;81;21085;-69
2022/05/30 07:58:06;;;;;;;2.52;2.12;;;;;;;16.80;82.77;98361.09;1761866;81;22441;-70
2022/05/30 08:00:36;;;;;;;2.00;1.80;;;;;;;16.86;82.86;98363.36;1743116;81;21038;-71
2022/05/30 08:03:04;;;;;;;2.98;2.00;;;;;;;16.91;82.67;98354.05;1771642;80;21094;-69
2022/05/30 08:05:32;;;;;;;2.60;2.33;;;;;;;16.96;82.59;98364.91;1759679;81;21529;-68
2022/05/30 08:08:10;;;;;;;2.37;2.17;;;;;;;17.02;82.58;98360.75;1751915;81;20943;-75
2022/05/30 08:10:45;;;;;;;2.87;2.67;;;;;;;17.05;82.57;98364.28;1746533;81;21254;-70
2022/05/30 08:13:12;;;;;;;2.25;2.10;;;;;;;17.10;82.49;98364.38;1752694;79;20978;-74
2022/05/30 08:15:44;;;;;;;2.52;2.02;;;;;;;17.14;82.47;98370.92;1765003;79;20951;-68
2022/05/30 08:18:15;;;;;;;3.17;1.82;;;;;;;17.21;82.42;98379.66;1759916;79;20963;-73
2022/05/30 08:20:42;;;;;;;3.05;2.00;;;;;;;17.30;82.37;98370.70;1746681;80;20966;-71
2022/05/30 08:23:09;;;;;;;1.72;1.62;;;;;;;17.36;82.16;98386.39;1743111;81;21297;-68
2022/05/30 08:25:38;;;;;;;2.00;1.80;;;;;;;17.42;81.82;98374.14;1739322;81;21560;-68
2022/05/30 08:28:05;;;;;;;1.65;1.55;;;;;;;17.49;81.66;98390.14;1749757;81;21553;-71
2022/05/30 08:30:31;;;;;;;1.90;1.60;;;;;;;17.56;81.36;98374.70;1765711;79;20939;-70
2022/05/30 08:33:13;;;;;;;2.33;2.08;;;;;;;17.63;81.22;98376.18;1743794;79;20987;-70
2022/05/30 08:36:02;;;;;;;3.80;1.70;;;;;;;17.66;81.26;98373.02;1762444;81;21142;-70
2022/05/30 08:38:37;;;;;;;2.85;2.12;;;;;;;17.80;81.45;98370.84;1744150;81;20935;-70
2022/05/30 08:43:56;;;;;;;2.37;1.92;;;;;;;18.08;80.97;98355.97;1743862;81;20957;-70
2022/05/30 08:46:57;;;;;;;2.12;1.90;;;;;;;18.23;80.70;98367.48;1748695;80;20983;-69
2022/05/30 08:49:42;;;;;;;2.10;2.00;;;;;;;18.35;80.16;98358.25;1743713;81;21561;-71
2022/05/30 08:52:46;;;;;;;2.20;1.98;;;;;;;18.45;79.28;98355.73;1760329;79;20979;-71
2022/05/30 08:55:25;;;;;;;2.00;1.90;;;;;;;18.47;78.45;98349.59;1751328;79;20892;-78
2022/05/30 08:58:16;;;;;;;1.82;1.72;;;;;;;18.49;78.34;98348.81;1771225;81;21031;-70
2022/05/30 09:00:53;;;;;;;1.67;1.57;;;;;;;18.52;78.19;98348.02;1772484;81;20976;-71
2022/05/30 09:03:44;;;;;;;2.77;1.82;;;;;;;18.55;78.15;98352.39;1760506;79;21115;-78
2022/05/30 09:06:23;;;;;;;2.47;1.62;;;;;;;18.59;78.25;98356.20;1769492;79;20919;-68
2022/05/30 09:08:54;;;;;;;1.98;1.87;;;;;;;18.66;77.97;98362.78;1765314;81;20983;-69
2022/05/30 09:11:48;;;;;;;2.70;1.87;;;;;;;18.72;77.27;98355.06;1771192;80;21042;-69
2022/05/30 09:14:23;;;;;;;1.82;1.72;;;;;;;18.74;76.91;98361.83;1773109;79;20833;-69
2022/05/30 09:16:53;;;;;;;1.60;1.50;;;;;;;18.76;76.46;98367.77;1772967;79;21868;-69
2022/05/30 09:19:23;;;;;;;2.25;2.00;;;;;;;18.79;76.24;98375.36;1740793;81;20931;-68
2022/05/30 09:21:53;;;;;;;1.85;1.75;;;;;;;18.83;76.04;98371.62;1763673;81;21489;-68
2022/05/30 09:24:20;;;;;;;1.55;1.45;;;;;;;18.84;75.90;98369.22;1772961;79;20992;-69
2022/05/30 09:26:47;;;;;;;2.20;1.57;;;;;;;18.88;75.79;98368.98;1772994;81;20868;-68
2022/05/30 09:29:22;;;;;;;2.20;2.00;;;;;;;18.87;75.73;98374.93;1772122;80;21240;-68
2022/05/30 09:32:25;;;;;;;2.58;2.10;;;;;;;18.88;75.92;98374.38;1776870;79;20903;-69
2022/05/30 09:35:26;;;;;;;2.20;2.00;;;;;;;18.94;76.02;98376.08;1759629;80;20887;-69
2022/05/30 09:38:19;;;;;;;3.60;1.77;;;;;;;19.03;75.95;98384.03;1759601;79;20931;-68
2022/05/30 09:41:09;;;;;;;1.92;1.60;;;;;;;19.08;75.14;98395.66;1784677;80;21127;-68
2022/05/30 09:44:03;;;;;;;2.73;1.70;;;;;;;19.15;74.70;98383.88;1789396;79;21739;-68
2022/05/30 09:46:40;;;;;;;1.77;1.67;;;;;;;19.19;74.25;98387.72;1780340;80;21437;-69
2022/05/30 09:49:38;;;;;;;2.58;1.85;;;;;;;19.22;74.03;98386.67;1789690;80;21487;-69
2022/05/30 09:52:29;;;;;;;1.90;1.70;;;;;;;19.23;73.51;98396.92;1789964;79;20918;-69
2022/05/30 09:54:57;;;;;;;2.52;1.37;;;;;;;19.21;73.38;98388.28;1789607;79;20934;-69
2022/05/30 09:57:42;;;;;;;1.57;1.47;;;;;;;19.18;73.66;98390.95;1789541;80;21821;-70
2022/05/30 10:00:23;;;;;;;3.17;1.57;;;;;;;19.16;73.79;98387.70;1776655;79;20926;-68
2022/05/30 10:03:07;;;;;;;1.87;1.62;;;;;;;19.16;74.11;98388.22;1730783;80;20934;-68
2022/05/30 10:05:35;;;;;;;1.15;1.12;;;;;;;19.18;74.25;98397.69;1782384;80;20844;-68
2022/05/30 10:08:06;;;;;;;3.55;1.50;;;;;;;19.19;74.46;98400.64;1789667;80;20871;-68
2022/05/30 10:10:43;;;;;;;2.25;1.87;;;;;;;19.21;74.35;98401.76;1745788;80;21149;-68
2022/05/30 10:13:10;;;;;;;2.20;1.60;;;;;;;19.23;74.26;98400.97;1755410;80;20887;-68
2022/05/30 10:15:57;;;;;;;1.47;1.37;;;;;;;19.25;74.31;98404.22;1789701;79;20993;-68
2022/05/30 10:18:28;;;;;;;1.85;1.75;;;;;;;19.28;74.22;98401.84;1789499;80;22315;-69
2022/05/30 10:21:22;;;;;;;2.83;1.92;;;;;;;19.29;74.16;98407.53;1769726;79;21041;-68
2022/05/30 10:30:59;;;;;;;1.65;1.10;;;;;;;19.21;74.62;98424.67;1779440;79;21509;-68
2022/05/30 10:34:27;;;;;;;2.50;0.80;;;;;;;19.12;74.33;98431.03;1777714;79;20935;-68
2022/05/30 10:37:02;;;;;;;1.27;0.60;;;;;;;18.99;73.82;98437.60;1751026;80;21066;-68
2022/05/30 10:40:10;;;;;;;1.47;0.57;;;;;;;18.92;73.74;98434.28;1772876;80;20962;-69
2022/05/30 10:43:07;;;;;;;0.90;0.70;;;;;;;18.89;73.42;98440.69;1773152;81;20828;-67
2022/05/30 10:45:45;;;;;;;0.82;0.60;;;;;;;18.83;73.63;98449.75;1763759;81;20888;-67
2022/05/30 10:48:27;;;;;;;1.30;1.05;;;;;;;18.79;74.29;98442.72;1743789;81;20966;-68
2022/05/30 10:50:58;;;;;;;1.05;0.90;;;;;;;18.79;74.42;98452.67;1743652;81;20963;-68
2022/05/30 10:53:51;;;;;;;1.27;1.15;;;;;;;18.77;74.47;98460.19;1743760;81;21136;-68
2022/05/30 10:56:40;;;;;;;0.90;0.90;;;;;;;18.81;74.67;98458.62;1767822;81;20991;-68
2022/05/30 10:59:31;;;;;;;0.85;0.85;;;;;;;18.91;74.16;98457.42;1773132;81;20887;-68
2022/05/30 11:02:30;;;;;;;0.70;0.70;;;;;;;19.01;74.08;98465.64;1753750;80;20950;-68
2022/05/30 11:05:21;;;;;;;1.12;1.00;;;;;;;19.16;73.06;98459.13;1769284;81;20919;-68
2022/05/30 11:08:27;;;;;;;1.35;0.90;;;;;;;19.35;72.52;98467.17;1764395;81;20916;-69
2022/05/30 11:11:05;;;;;;;1.60;1.20;;;;;;;19.52;71.50;98462.58;1773179;79;20982;-69
2022/05/30 11:13:49;;;;;;;2.10;1.00;;;;;;;19.64;70.20;98467.83;1773192;79;20919;-69
2022/05/30 11:16:45;;;;;;;2.87;1.20;;;;;;;19.69;68.88;98471.40;1706356;83;20915;-69
2022/05/30 11:19:25;;;;;;;2.52;1.20;;;;;;;19.76;67.68;98465.83;1750683;80;21458;-68
2022/05/30 11:22:21;;;;;;;2.37;1.42;;;;;;;19.86;66.53;98463.23;1728106;80;21248;-69
2022/05/30 11:24:51;;;;;;;7.00;2.30;;;;;;;20.02;65.72;98466.34;1772425;80;20840;-69
2022/05/30 11:27:51;;;;;;;6.20;1.92;;;;;;;20.21;64.74;98463.56;1773073;81;20864;-68
2022/05/30 11:30:48;;;;;;;2.62;2.02;;;;;;;20.39;64.79;98471.84;1773155;81;20971;-68
2022/05/30 11:33:29;;;;;;;3.05;1.32;;;;;;;20.59;62.67;98479.31;1773308;80;20841;-69
2022/05/30 11:36:36;;;;;;;1.90;1.50;;;;;;;20.72;60.02;98470.77;1773300;81;21147;-68
2022/05/30 11:39:53;;;;;;;3.58;2.00;;;;;;;20.82;58.28;98474.36;1773170;81;21462;-69
2022/05/30 11:42:52;;;;;;;1.67;1.55;;;;;;;20.82;58.28;98474.36;1764741;81;20947;-68
2022/05/30 11:45:57;;;;;;;2.45;1.55;;;;;;;20.84;57.64;98483.01;1772987;81;20955;-69
2022/05/30 11:48:44;;;;;;;4.55;2.05;;;;;;;20.82;58.29;98486.52;1773220;81;20986;-69
2022/05/30 11:51:59;;;;;;;3.62;1.90;;;;;;;20.86;58.52;98486.27;1773079;81;21203;-69
2022/05/30 11:54:45;;;;;;;4.05;1.98;;;;;;;20.96;58.72;98479.31;1773144;79;21583;-69
2022/05/30 11:57:32;;;;;;;3.52;1.47;;;;;;;21.07;59.08;98481.83;1765476;81;20923;-68
2022/05/30 12:00:09;;;;;;;;;;;;;;;21.21;58.89;98489.77;1775824;79;20892;-67
2022/05/30 12:03:04;;;;;;;2.22;1.62;;;;;;;21.29;57.41;98501.44;1773162;81;20106;-68
2022/05/30 12:05:54;;;;;;;2.58;1.85;;;;;;;21.30;56.85;98502.27;1773181;79;21147;-67
2022/05/30 12:08:56;;;;;;;1.67;1.25;;;;;;;21.33;56.93;98501.70;1773211;79;21462;-69
2022/05/30 12:12:01;;;;;;;2.15;1.57;;;;;;;21.41;57.17;98495.27;1773197;79;20991;-69
2022/05/30 12:15:10;;;;;;;3.77;1.92;;;;;;;21.47;55.71;98498.81;1772894;80;21038;-68
2022/05/30 12:24:21;;;;;;;3.85;1.60;;;;;;;21.41;51.70;98516.09;1773172;81;20916;-68
2022/05/30 12:26:54;;;;;;;4.28;1.62;;;;;;;21.36;51.66;98533.65;1773236;81;21470;-69
2022/05/30 12:29:42;;;;;;;3.55;1.90;;;;;;;21.36;51.74;98532.30;1773090;81;20962;-68
2022/05/30 12:32:36;;;;;;;2.92;1.75;;;;;;;21.36;51.82;98543.12;1773085;81;20940;-69
2022/05/30 12:35:18;;;;;;;1.60;1.50;;;;;;;21.36;50.23;98545.29;1743752;81;21152;-68
2022/05/30 12:37:49;;;;;;;3.83;1.55;;;;;;;21.36;50.30;98545.82;1743697;81;20872;-68